sensor_id;sensor_type;location;lat;lon;timestamp;P1;durP1;ratioP1;P2;durP2;ratioP2
21671;SDS011;10997;52.242;8.168;2023-12-20T00:04:23;17.60;;;5.93;;
21671;SDS011;10997;52.242;8.168;2023-12-20T00:09:23;20.02;;;5.70;;
21671;SDS011;10997;52.242;8.168;2023-12-20T00:14:24;16.80;;;5.72;;
21671;SDS011;10997;52.242;8.168;2023-12-20T00:19:26;19.60;;;5.70;;
21671;SDS011;10997;52.242;8.168;2023-12-20T00:24:26;13.75;;;6.18;;
21671;SDS011;10997;52.242;8.168;2023-12-20T00:29:27;17.70;;;6.10;;
21671;SDS011;10997;52.242;8.168;2023-12-20T00:34:28;18.30;;;6.25;;
21671;SDS011;10997;52.242;8.168;2023-12-20T00:39:28;20.17;;;6.13;;
21671;SDS011;10997;52.242;8.168;2023-12-20T00:44:29;25.83;;;6.38;;
21671;SDS011;10997;52.242;8.168;2023-12-20T00:49:30;16.45;;;5.70;;
21671;SDS011;10997;52.242;8.168;2023-12-20T00:54:30;19.40;;;6.00;;
21671;SDS011;10997;52.242;8.168;2023-12-20T00:59:31;19.15;;;5.50;;
21671;SDS011;10997;52.242;8.168;2023-12-20T01:04:31;15.68;;;5.18;;
21671;SDS011;10997;52.242;8.168;2023-12-20T01:09:32;12.40;;;4.10;;
21671;SDS011;10997;52.242;8.168;2023-12-20T01:14:33;17.52;;;5.18;;
21671;SDS011;10997;52.242;8.168;2023-12-20T01:19:33;13.63;;;3.85;;
21671;SDS011;10997;52.242;8.168;2023-12-20T01:24:34;15.55;;;4.25;;
21671;SDS011;10997;52.242;8.168;2023-12-20T01:29:35;11.80;;;4.18;;
21671;SDS011;10997;52.242;8.168;2023-12-20T01:34:36;18.02;;;4.63;;
21671;SDS011;10997;52.242;8.168;2023-12-20T01:39:36;12.82;;;4.38;;
21671;SDS011;10997;52.242;8.168;2023-12-20T01:44:37;15.00;;;4.65;;
21671;SDS011;10997;52.242;8.168;2023-12-20T01:49:38;11.73;;;3.88;;
21671;SDS011;10997;52.242;8.168;2023-12-20T01:54:39;15.48;;;4.38;;
21671;SDS011;10997;52.242;8.168;2023-12-20T01:59:41;14.93;;;3.88;;
21671;SDS011;10997;52.242;8.168;2023-12-20T02:04:42;12.93;;;3.55;;
21671;SDS011;10997;52.242;8.168;2023-12-20T02:09:43;13.70;;;3.70;;
21671;SDS011;10997;52.242;8.168;2023-12-20T02:14:44;16.38;;;4.82;;
21671;SDS011;10997;52.242;8.168;2023-12-20T02:19:44;17.92;;;4.43;;
21671;SDS011;10997;52.242;8.168;2023-12-20T02:24:45;18.15;;;4.75;;
21671;SDS011;10997;52.242;8.168;2023-12-20T02:29:46;15.85;;;4.82;;
21671;SDS011;10997;52.242;8.168;2023-12-20T02:34:48;16.92;;;5.53;;
21671;SDS011;10997;52.242;8.168;2023-12-20T02:39:48;20.08;;;6.03;;
21671;SDS011;10997;52.242;8.168;2023-12-20T02:44:49;15.52;;;6.25;;
21671;SDS011;10997;52.242;8.168;2023-12-20T02:49:50;18.85;;;6.38;;
21671;SDS011;10997;52.242;8.168;2023-12-20T02:54:51;22.73;;;7.28;;
21671;SDS011;10997;52.242;8.168;2023-12-20T02:59:51;20.33;;;6.80;;
21671;SDS011;10997;52.242;8.168;2023-12-20T03:04:52;22.60;;;6.40;;
21671;SDS011;10997;52.242;8.168;2023-12-20T03:09:53;22.88;;;6.47;;
21671;SDS011;10997;52.242;8.168;2023-12-20T03:14:53;27.13;;;7.22;;
21671;SDS011;10997;52.242;8.168;2023-12-20T03:19:54;22.70;;;7.50;;
21671;SDS011;10997;52.242;8.168;2023-12-20T03:24:54;24.98;;;7.55;;
21671;SDS011;10997;52.242;8.168;2023-12-20T03:29:55;24.25;;;6.50;;
21671;SDS011;10997;52.242;8.168;2023-12-20T03:34:56;22.60;;;6.97;;
21671;SDS011;10997;52.242;8.168;2023-12-20T03:39:56;22.10;;;7.60;;
21671;SDS011;10997;52.242;8.168;2023-12-20T03:44:57;24.05;;;6.93;;
21671;SDS011;10997;52.242;8.168;2023-12-20T03:49:57;25.75;;;8.23;;
21671;SDS011;10997;52.242;8.168;2023-12-20T03:54:58;21.95;;;6.75;;
21671;SDS011;10997;52.242;8.168;2023-12-20T03:59:59;29.92;;;7.50;;
21671;SDS011;10997;52.242;8.168;2023-12-20T04:04:59;25.65;;;7.30;;
21671;SDS011;10997;52.242;8.168;2023-12-20T04:10:00;20.67;;;6.57;;
21671;SDS011;10997;52.242;8.168;2023-12-20T04:15:00;18.27;;;5.93;;
21671;SDS011;10997;52.242;8.168;2023-12-20T04:20:01;23.05;;;6.10;;
21671;SDS011;10997;52.242;8.168;2023-12-20T04:25:02;21.58;;;5.90;;
21671;SDS011;10997;52.242;8.168;2023-12-20T04:30:03;23.85;;;6.32;;
21671;SDS011;10997;52.242;8.168;2023-12-20T04:35:04;25.88;;;6.50;;
21671;SDS011;10997;52.242;8.168;2023-12-20T04:40:06;26.15;;;6.40;;
21671;SDS011;10997;52.242;8.168;2023-12-20T04:45:08;19.20;;;5.85;;
21671;SDS011;10997;52.242;8.168;2023-12-20T04:50:09;26.48;;;5.97;;
21671;SDS011;10997;52.242;8.168;2023-12-20T04:55:09;19.70;;;5.15;;
21671;SDS011;10997;52.242;8.168;2023-12-20T05:00:10;27.13;;;5.70;;
21671;SDS011;10997;52.242;8.168;2023-12-20T05:05:12;26.25;;;5.70;;
21671;SDS011;10997;52.242;8.168;2023-12-20T05:10:15;22.67;;;5.32;;
21671;SDS011;10997;52.242;8.168;2023-12-20T05:15:15;24.17;;;5.13;;
21671;SDS011;10997;52.242;8.168;2023-12-20T05:20:16;26.20;;;5.25;;
21671;SDS011;10997;52.242;8.168;2023-12-20T05:25:16;20.65;;;5.10;;
21671;SDS011;10997;52.242;8.168;2023-12-20T05:30:17;26.38;;;4.97;;
21671;SDS011;10997;52.242;8.168;2023-12-20T05:35:18;23.60;;;5.22;;
21671;SDS011;10997;52.242;8.168;2023-12-20T05:40:19;23.80;;;4.90;;
21671;SDS011;10997;52.242;8.168;2023-12-20T05:45:19;26.90;;;5.78;;
21671;SDS011;10997;52.242;8.168;2023-12-20T05:50:20;29.65;;;5.70;;
21671;SDS011;10997;52.242;8.168;2023-12-20T05:55:21;23.08;;;5.32;;
21671;SDS011;10997;52.242;8.168;2023-12-20T06:00:22;28.58;;;6.13;;
21671;SDS011;10997;52.242;8.168;2023-12-20T06:05:22;21.58;;;5.43;;
21671;SDS011;10997;52.242;8.168;2023-12-20T06:10:23;26.23;;;6.43;;
21671;SDS011;10997;52.242;8.168;2023-12-20T06:15:24;24.88;;;5.97;;
21671;SDS011;10997;52.242;8.168;2023-12-20T06:20:24;24.52;;;5.82;;
21671;SDS011;10997;52.242;8.168;2023-12-20T06:25:26;23.77;;;5.20;;
21671;SDS011;10997;52.242;8.168;2023-12-20T06:30:27;26.25;;;6.00;;
21671;SDS011;10997;52.242;8.168;2023-12-20T06:35:27;28.30;;;6.13;;
21671;SDS011;10997;52.242;8.168;2023-12-20T06:40:28;21.17;;;6.50;;
21671;SDS011;10997;52.242;8.168;2023-12-20T06:45:29;21.20;;;5.30;;
21671;SDS011;10997;52.242;8.168;2023-12-20T06:50:29;25.33;;;6.38;;
21671;SDS011;10997;52.242;8.168;2023-12-20T06:55:30;22.58;;;5.65;;
21671;SDS011;10997;52.242;8.168;2023-12-20T07:00:31;25.08;;;6.30;;
21671;SDS011;10997;52.242;8.168;2023-12-20T07:05:32;25.80;;;6.00;;
21671;SDS011;10997;52.242;8.168;2023-12-20T07:10:33;33.35;;;5.60;;
21671;SDS011;10997;52.242;8.168;2023-12-20T07:15:34;17.50;;;4.78;;
21671;SDS011;10997;52.242;8.168;2023-12-20T07:20:36;26.63;;;6.05;;
21671;SDS011;10997;52.242;8.168;2023-12-20T07:25:37;22.42;;;5.28;;
21671;SDS011;10997;52.242;8.168;2023-12-20T07:30:38;26.25;;;4.95;;
21671;SDS011;10997;52.242;8.168;2023-12-20T07:35:39;22.05;;;5.35;;
21671;SDS011;10997;52.242;8.168;2023-12-20T07:40:39;27.15;;;5.07;;
21671;SDS011;10997;52.242;8.168;2023-12-20T07:45:40;27.67;;;5.45;;
21671;SDS011;10997;52.242;8.168;2023-12-20T07:50:40;27.23;;;4.90;;
21671;SDS011;10997;52.242;8.168;2023-12-20T07:55:42;24.05;;;5.43;;
21671;SDS011;10997;52.242;8.168;2023-12-20T08:00:43;18.67;;;4.10;;
21671;SDS011;10997;52.242;8.168;2023-12-20T08:05:44;23.65;;;4.97;;
21671;SDS011;10997;52.242;8.168;2023-12-20T08:10:44;21.38;;;4.82;;
21671;SDS011;10997;52.242;8.168;2023-12-20T08:15:45;22.25;;;4.80;;
21671;SDS011;10997;52.242;8.168;2023-12-20T08:20:45;25.75;;;4.88;;
21671;SDS011;10997;52.242;8.168;2023-12-20T08:25:48;16.77;;;4.22;;
21671;SDS011;10997;52.242;8.168;2023-12-20T08:30:49;22.80;;;4.68;;
21671;SDS011;10997;52.242;8.168;2023-12-20T08:35:53;23.40;;;5.15;;
21671;SDS011;10997;52.242;8.168;2023-12-20T08:40:54;22.77;;;4.43;;
21671;SDS011;10997;52.242;8.168;2023-12-20T08:45:54;20.02;;;4.63;;
21671;SDS011;10997;52.242;8.168;2023-12-20T08:50:55;23.70;;;4.75;;
21671;SDS011;10997;52.242;8.168;2023-12-20T08:55:55;22.25;;;4.75;;
21671;SDS011;10997;52.242;8.168;2023-12-20T09:01:01;20.30;;;4.40;;
21671;SDS011;10997;52.242;8.168;2023-12-20T09:06:01;22.38;;;4.53;;
21671;SDS011;10997;52.242;8.168;2023-12-20T09:11:03;28.13;;;5.10;;
21671;SDS011;10997;52.242;8.168;2023-12-20T09:16:03;22.83;;;5.10;;
21671;SDS011;10997;52.242;8.168;2023-12-20T09:21:04;22.05;;;5.25;;
21671;SDS011;10997;52.242;8.168;2023-12-20T09:26:05;23.40;;;4.97;;
21671;SDS011;10997;52.242;8.168;2023-12-20T09:31:06;22.30;;;5.72;;
21671;SDS011;10997;52.242;8.168;2023-12-20T09:36:07;26.00;;;6.38;;
21671;SDS011;10997;52.242;8.168;2023-12-20T09:41:07;29.73;;;6.20;;
21671;SDS011;10997;52.242;8.168;2023-12-20T09:46:08;20.23;;;5.20;;
21671;SDS011;10997;52.242;8.168;2023-12-20T09:51:12;20.80;;;5.68;;
21671;SDS011;10997;52.242;8.168;2023-12-20T09:56:13;27.60;;;6.85;;
21671;SDS011;10997;52.242;8.168;2023-12-20T10:01:14;25.52;;;5.88;;
21671;SDS011;10997;52.242;8.168;2023-12-20T10:06:20;21.08;;;6.15;;
21671;SDS011;10997;52.242;8.168;2023-12-20T10:11:21;17.10;;;6.10;;
21671;SDS011;10997;52.242;8.168;2023-12-20T10:16:24;19.60;;;6.90;;
21671;SDS011;10997;52.242;8.168;2023-12-20T10:21:25;30.73;;;7.45;;
21671;SDS011;10997;52.242;8.168;2023-12-20T10:26:27;22.63;;;5.60;;
21671;SDS011;10997;52.242;8.168;2023-12-20T10:36:32;21.02;;;5.30;;
21671;SDS011;10997;52.242;8.168;2023-12-20T10:41:33;20.05;;;4.95;;
21671;SDS011;10997;52.242;8.168;2023-12-20T10:46:35;17.40;;;4.03;;
21671;SDS011;10997;52.242;8.168;2023-12-20T10:51:37;20.73;;;4.38;;
21671;SDS011;10997;52.242;8.168;2023-12-20T10:56:38;19.45;;;4.93;;
21671;SDS011;10997;52.242;8.168;2023-12-20T11:01:39;16.30;;;3.70;;
21671;SDS011;10997;52.242;8.168;2023-12-20T11:06:44;12.25;;;3.75;;
21671;SDS011;10997;52.242;8.168;2023-12-20T11:11:56;14.82;;;4.03;;
21671;SDS011;10997;52.242;8.168;2023-12-20T11:17:06;19.25;;;4.22;;
21671;SDS011;10997;52.242;8.168;2023-12-20T11:22:07;18.45;;;3.92;;
21671;SDS011;10997;52.242;8.168;2023-12-20T11:27:09;12.77;;;3.70;;
21671;SDS011;10997;52.242;8.168;2023-12-20T11:37:31;16.58;;;3.92;;
21671;SDS011;10997;52.242;8.168;2023-12-20T11:42:39;16.90;;;4.03;;
21671;SDS011;10997;52.242;8.168;2023-12-20T11:47:44;16.77;;;4.00;;
21671;SDS011;10997;52.242;8.168;2023-12-20T11:52:46;20.20;;;4.15;;
21671;SDS011;10997;52.242;8.168;2023-12-20T11:57:51;17.53;;;4.60;;
21671;SDS011;10997;52.242;8.168;2023-12-20T12:02:56;23.08;;;5.35;;
21671;SDS011;10997;52.242;8.168;2023-12-20T12:07:58;23.43;;;5.10;;
21671;SDS011;10997;52.242;8.168;2023-12-20T12:13:00;17.25;;;3.97;;
21671;SDS011;10997;52.242;8.168;2023-12-20T12:18:01;12.60;;;2.22;;
21671;SDS011;10997;52.242;8.168;2023-12-20T12:23:03;9.75;;;1.95;;
21671;SDS011;10997;52.242;8.168;2023-12-20T12:28:04;7.70;;;1.80;;
21671;SDS011;10997;52.242;8.168;2023-12-20T12:33:05;8.25;;;2.00;;
21671;SDS011;10997;52.242;8.168;2023-12-20T12:38:06;9.43;;;1.80;;
21671;SDS011;10997;52.242;8.168;2023-12-20T12:43:07;7.45;;;1.83;;
21671;SDS011;10997;52.242;8.168;2023-12-20T12:48:08;12.95;;;2.20;;
21671;SDS011;10997;52.242;8.168;2023-12-20T12:53:09;8.82;;;1.73;;
21671;SDS011;10997;52.242;8.168;2023-12-20T12:58:09;15.07;;;2.33;;
21671;SDS011;10997;52.242;8.168;2023-12-20T13:03:10;6.60;;;2.00;;
21671;SDS011;10997;52.242;8.168;2023-12-20T13:08:11;10.77;;;1.80;;
21671;SDS011;10997;52.242;8.168;2023-12-20T13:13:12;5.88;;;2.00;;
21671;SDS011;10997;52.242;8.168;2023-12-20T13:18:12;10.20;;;2.20;;
21671;SDS011;10997;52.242;8.168;2023-12-20T13:23:13;10.02;;;1.95;;
21671;SDS011;10997;52.242;8.168;2023-12-20T13:28:14;12.52;;;2.45;;
21671;SDS011;10997;52.242;8.168;2023-12-20T13:33:14;8.07;;;2.00;;
21671;SDS011;10997;52.242;8.168;2023-12-20T13:38:15;7.95;;;1.80;;
21671;SDS011;10997;52.242;8.168;2023-12-20T13:43:16;9.20;;;1.80;;
21671;SDS011;10997;52.242;8.168;2023-12-20T13:48:20;7.57;;;1.83;;
21671;SDS011;10997;52.242;8.168;2023-12-20T13:53:21;13.57;;;2.08;;
21671;SDS011;10997;52.242;8.168;2023-12-20T13:58:22;10.90;;;1.90;;
21671;SDS011;10997;52.242;8.168;2023-12-20T14:03:22;10.13;;;1.67;;
21671;SDS011;10997;52.242;8.168;2023-12-20T14:08:23;11.35;;;2.17;;
21671;SDS011;10997;52.242;8.168;2023-12-20T14:13:24;9.60;;;1.60;;
21671;SDS011;10997;52.242;8.168;2023-12-20T14:18:24;11.82;;;2.35;;
21671;SDS011;10997;52.242;8.168;2023-12-20T14:23:25;13.18;;;2.10;;
21671;SDS011;10997;52.242;8.168;2023-12-20T14:28:25;13.23;;;2.20;;
21671;SDS011;10997;52.242;8.168;2023-12-20T14:33:26;11.18;;;2.20;;
21671;SDS011;10997;52.242;8.168;2023-12-20T14:38:27;11.30;;;1.85;;
21671;SDS011;10997;52.242;8.168;2023-12-20T14:43:27;11.32;;;2.22;;
21671;SDS011;10997;52.242;8.168;2023-12-20T14:48:28;8.13;;;1.73;;
21671;SDS011;10997;52.242;8.168;2023-12-20T14:53:29;11.23;;;1.95;;
21671;SDS011;10997;52.242;8.168;2023-12-20T14:58:31;9.52;;;1.83;;
21671;SDS011;10997;52.242;8.168;2023-12-20T15:03:32;6.20;;;1.80;;
21671;SDS011;10997;52.242;8.168;2023-12-20T15:08:38;11.50;;;1.80;;
21671;SDS011;10997;52.242;8.168;2023-12-20T15:13:39;10.02;;;2.30;;
21671;SDS011;10997;52.242;8.168;2023-12-20T15:18:40;11.82;;;2.50;;
21671;SDS011;10997;52.242;8.168;2023-12-20T15:23:40;11.55;;;2.85;;
21671;SDS011;10997;52.242;8.168;2023-12-20T15:28:52;15.77;;;3.10;;
21671;SDS011;10997;52.242;8.168;2023-12-20T15:33:53;12.63;;;3.47;;
21671;SDS011;10997;52.242;8.168;2023-12-20T15:38:53;9.57;;;3.33;;
21671;SDS011;10997;52.242;8.168;2023-12-20T15:43:54;11.05;;;3.05;;
21671;SDS011;10997;52.242;8.168;2023-12-20T15:48:55;12.27;;;3.00;;
21671;SDS011;10997;52.242;8.168;2023-12-20T15:53:56;11.25;;;3.08;;
21671;SDS011;10997;52.242;8.168;2023-12-20T15:58:57;8.70;;;2.13;;
21671;SDS011;10997;52.242;8.168;2023-12-20T16:03:58;6.43;;;2.20;;
21671;SDS011;10997;52.242;8.168;2023-12-20T16:08:59;9.00;;;2.45;;
21671;SDS011;10997;52.242;8.168;2023-12-20T16:14:03;11.20;;;2.55;;
21671;SDS011;10997;52.242;8.168;2023-12-20T16:19:03;9.60;;;3.50;;
21671;SDS011;10997;52.242;8.168;2023-12-20T16:24:04;12.32;;;3.40;;
21671;SDS011;10997;52.242;8.168;2023-12-20T16:29:05;14.45;;;4.50;;
21671;SDS011;10997;52.242;8.168;2023-12-20T16:34:06;14.75;;;4.60;;
21671;SDS011;10997;52.242;8.168;2023-12-20T16:39:07;18.13;;;4.72;;
21671;SDS011;10997;52.242;8.168;2023-12-20T16:44:07;14.68;;;4.35;;
21671;SDS011;10997;52.242;8.168;2023-12-20T16:49:08;17.65;;;4.97;;
21671;SDS011;10997;52.242;8.168;2023-12-20T16:54:08;13.13;;;3.15;;
21671;SDS011;10997;52.242;8.168;2023-12-20T16:59:09;14.10;;;3.50;;
21671;SDS011;10997;52.242;8.168;2023-12-20T17:04:10;16.73;;;3.65;;
21671;SDS011;10997;52.242;8.168;2023-12-20T17:09:14;15.73;;;3.65;;
21671;SDS011;10997;52.242;8.168;2023-12-20T17:14:16;17.08;;;3.67;;
21671;SDS011;10997;52.242;8.168;2023-12-20T17:19:17;21.17;;;4.88;;
21671;SDS011;10997;52.242;8.168;2023-12-20T17:24:17;21.67;;;7.55;;
21671;SDS011;10997;52.242;8.168;2023-12-20T17:29:18;21.52;;;7.05;;
21671;SDS011;10997;52.242;8.168;2023-12-20T17:34:19;23.75;;;7.72;;
21671;SDS011;10997;52.242;8.168;2023-12-20T17:39:20;26.00;;;8.20;;
21671;SDS011;10997;52.242;8.168;2023-12-20T17:44:20;24.40;;;8.65;;
21671;SDS011;10997;52.242;8.168;2023-12-20T17:49:21;23.88;;;7.40;;
21671;SDS011;10997;52.242;8.168;2023-12-20T17:54:22;25.08;;;8.63;;
21671;SDS011;10997;52.242;8.168;2023-12-20T17:59:23;21.98;;;8.77;;
21671;SDS011;10997;52.242;8.168;2023-12-20T18:04:24;30.50;;;10.02;;
21671;SDS011;10997;52.242;8.168;2023-12-20T18:09:25;29.85;;;11.07;;
21671;SDS011;10997;52.242;8.168;2023-12-20T18:14:26;29.42;;;13.05;;
21671;SDS011;10997;52.242;8.168;2023-12-20T18:19:27;28.10;;;12.23;;
21671;SDS011;10997;52.242;8.168;2023-12-20T18:24:27;25.90;;;13.68;;
21671;SDS011;10997;52.242;8.168;2023-12-20T18:29:28;30.67;;;14.30;;
21671;SDS011;10997;52.242;8.168;2023-12-20T18:34:28;28.40;;;13.35;;
21671;SDS011;10997;52.242;8.168;2023-12-20T18:39:32;28.80;;;14.45;;
21671;SDS011;10997;52.242;8.168;2023-12-20T18:44:34;27.65;;;13.88;;
21671;SDS011;10997;52.242;8.168;2023-12-20T18:49:35;30.25;;;13.93;;
21671;SDS011;10997;52.242;8.168;2023-12-20T18:54:35;32.58;;;13.95;;
21671;SDS011;10997;52.242;8.168;2023-12-20T18:59:36;23.77;;;13.43;;
21671;SDS011;10997;52.242;8.168;2023-12-20T19:04:37;30.33;;;13.48;;
21671;SDS011;10997;52.242;8.168;2023-12-20T19:09:37;27.05;;;13.18;;
21671;SDS011;10997;52.242;8.168;2023-12-20T19:14:38;31.52;;;14.55;;
21671;SDS011;10997;52.242;8.168;2023-12-20T19:19:38;25.98;;;13.73;;
21671;SDS011;10997;52.242;8.168;2023-12-20T19:24:39;25.20;;;14.43;;
21671;SDS011;10997;52.242;8.168;2023-12-20T19:29:40;22.30;;;13.07;;
21671;SDS011;10997;52.242;8.168;2023-12-20T19:34:40;24.75;;;13.23;;
21671;SDS011;10997;52.242;8.168;2023-12-20T19:39:41;19.80;;;12.63;;
21671;SDS011;10997;52.242;8.168;2023-12-20T19:44:42;18.00;;;12.18;;
21671;SDS011;10997;52.242;8.168;2023-12-20T19:49:43;18.88;;;10.63;;
21671;SDS011;10997;52.242;8.168;2023-12-20T19:54:44;18.27;;;10.95;;
21671;SDS011;10997;52.242;8.168;2023-12-20T19:59:44;19.55;;;10.63;;
21671;SDS011;10997;52.242;8.168;2023-12-20T20:04:45;16.90;;;9.65;;
21671;SDS011;10997;52.242;8.168;2023-12-20T20:09:46;18.23;;;10.32;;
21671;SDS011;10997;52.242;8.168;2023-12-20T20:14:46;15.23;;;10.05;;
21671;SDS011;10997;52.242;8.168;2023-12-20T20:19:47;10.18;;;6.65;;
21671;SDS011;10997;52.242;8.168;2023-12-20T20:24:48;13.68;;;9.30;;
21671;SDS011;10997;52.242;8.168;2023-12-20T20:29:48;14.25;;;9.98;;
21671;SDS011;10997;52.242;8.168;2023-12-20T20:34:50;14.88;;;9.90;;
21671;SDS011;10997;52.242;8.168;2023-12-20T20:39:50;12.18;;;8.70;;
21671;SDS011;10997;52.242;8.168;2023-12-20T20:44:51;15.73;;;9.57;;
21671;SDS011;10997;52.242;8.168;2023-12-20T20:49:52;11.70;;;8.05;;
21671;SDS011;10997;52.242;8.168;2023-12-20T20:54:52;11.73;;;8.18;;
21671;SDS011;10997;52.242;8.168;2023-12-20T20:59:53;10.32;;;8.07;;
21671;SDS011;10997;52.242;8.168;2023-12-20T21:04:53;8.48;;;6.28;;
21671;SDS011;10997;52.242;8.168;2023-12-20T21:09:54;7.82;;;6.15;;
21671;SDS011;10997;52.242;8.168;2023-12-20T21:14:55;7.93;;;5.43;;
21671;SDS011;10997;52.242;8.168;2023-12-20T21:19:56;7.38;;;5.32;;
21671;SDS011;10997;52.242;8.168;2023-12-20T21:24:57;6.07;;;4.90;;
21671;SDS011;10997;52.242;8.168;2023-12-20T21:29:57;6.38;;;5.30;;
21671;SDS011;10997;52.242;8.168;2023-12-20T21:34:58;6.50;;;5.03;;
21671;SDS011;10997;52.242;8.168;2023-12-20T21:39:59;6.32;;;5.07;;
21671;SDS011;10997;52.242;8.168;2023-12-20T21:45:00;6.38;;;5.30;;
21671;SDS011;10997;52.242;8.168;2023-12-20T21:50:00;6.68;;;5.57;;
21671;SDS011;10997;52.242;8.168;2023-12-20T21:55:01;8.55;;;6.63;;
21671;SDS011;10997;52.242;8.168;2023-12-20T22:00:03;6.93;;;5.70;;
21671;SDS011;10997;52.242;8.168;2023-12-20T22:05:04;6.78;;;5.85;;
21671;SDS011;10997;52.242;8.168;2023-12-20T22:10:05;10.48;;;6.88;;
21671;SDS011;10997;52.242;8.168;2023-12-20T22:15:07;9.40;;;6.55;;
21671;SDS011;10997;52.242;8.168;2023-12-20T22:20:08;7.88;;;7.07;;
21671;SDS011;10997;52.242;8.168;2023-12-20T22:25:09;8.65;;;7.75;;
21671;SDS011;10997;52.242;8.168;2023-12-20T22:30:10;9.10;;;6.97;;
21671;SDS011;10997;52.242;8.168;2023-12-20T22:35:11;10.55;;;7.78;;
21671;SDS011;10997;52.242;8.168;2023-12-20T22:40:12;6.78;;;5.80;;
21671;SDS011;10997;52.242;8.168;2023-12-20T22:45:13;8.88;;;7.40;;
21671;SDS011;10997;52.242;8.168;2023-12-20T22:50:14;10.02;;;7.20;;
21671;SDS011;10997;52.242;8.168;2023-12-20T22:55:15;7.25;;;5.80;;
21671;SDS011;10997;52.242;8.168;2023-12-20T23:00:16;8.27;;;6.43;;
21671;SDS011;10997;52.242;8.168;2023-12-20T23:05:21;5.60;;;4.85;;
21671;SDS011;10997;52.242;8.168;2023-12-20T23:10:26;5.80;;;4.57;;
21671;SDS011;10997;52.242;8.168;2023-12-20T23:15:29;9.48;;;5.05;;
21671;SDS011;10997;52.242;8.168;2023-12-20T23:20:30;8.43;;;5.00;;
21671;SDS011;10997;52.242;8.168;2023-12-20T23:25:31;6.35;;;5.10;;
21671;SDS011;10997;52.242;8.168;2023-12-20T23:30:32;6.53;;;5.13;;
21671;SDS011;10997;52.242;8.168;2023-12-20T23:35:33;6.93;;;5.30;;
21671;SDS011;10997;52.242;8.168;2023-12-20T23:40:34;5.20;;;4.63;;
21671;SDS011;10997;52.242;8.168;2023-12-20T23:45:34;5.82;;;4.90;;
21671;SDS011;10997;52.242;8.168;2023-12-20T23:50:35;4.93;;;4.43;;
21671;SDS011;10997;52.242;8.168;2023-12-20T23:55:36;5.57;;;4.50;;
